sensor_id;sensor_type;location;lat;lon;timestamp;P1;durP1;ratioP1;P2;durP2;ratioP2
35606;SDS011;21729;58.392;15.656;2022-07-01T00:01:31;27.10;;;24.40;;
35606;SDS011;21729;58.392;15.656;2022-07-01T00:03:58;26.38;;;23.80;;
35606;SDS011;21729;58.392;15.656;2022-07-01T00:06:25;27.77;;;25.08;;
35606;SDS011;21729;58.392;15.656;2022-07-01T00:08:52;27.67;;;25.08;;
35606;SDS011;21729;58.392;15.656;2022-07-01T00:11:19;28.07;;;25.33;;
35606;SDS011;21729;58.392;15.656;2022-07-01T00:13:48;26.70;;;24.10;;
35606;SDS011;21729;58.392;15.656;2022-07-01T00:16:15;27.13;;;24.52;;
35606;SDS011;21729;58.392;15.656;2022-07-01T00:18:42;26.90;;;24.38;;
35606;SDS011;21729;58.392;15.656;2022-07-01T00:21:09;27.20;;;24.65;;
35606;SDS011;21729;58.392;15.656;2022-07-01T00:23:37;26.98;;;24.48;;
35606;SDS011;21729;58.392;15.656;2022-07-01T00:26:04;27.23;;;24.73;;
35606;SDS011;21729;58.392;15.656;2022-07-01T00:28:31;26.90;;;24.40;;
35606;SDS011;21729;58.392;15.656;2022-07-01T00:31:00;27.00;;;24.50;;
35606;SDS011;21729;58.392;15.656;2022-07-01T00:33:27;26.55;;;24.05;;
35606;SDS011;21729;58.392;15.656;2022-07-01T00:35:54;27.90;;;25.20;;
35606;SDS011;21729;58.392;15.656;2022-07-01T00:38:21;27.83;;;25.23;;
35606;SDS011;21729;58.392;15.656;2022-07-01T00:40:51;26.83;;;24.25;;
35606;SDS011;21729;58.392;15.656;2022-07-01T00:43:19;27.08;;;24.42;;
35606;SDS011;21729;58.392;15.656;2022-07-01T00:45:48;26.00;;;23.40;;
35606;SDS011;21729;58.392;15.656;2022-07-01T00:48:17;27.13;;;24.60;;
35606;SDS011;21729;58.392;15.656;2022-07-01T00:50:46;27.55;;;25.05;;
35606;SDS011;21729;58.392;15.656;2022-07-01T00:53:13;24.48;;;22.20;;
35606;SDS011;21729;58.392;15.656;2022-07-01T00:55:41;24.30;;;22.00;;
35606;SDS011;21729;58.392;15.656;2022-07-01T00:58:08;24.30;;;21.90;;
35606;SDS011;21729;58.392;15.656;2022-07-01T01:00:36;24.40;;;22.07;;
35606;SDS011;21729;58.392;15.656;2022-07-01T01:03:04;24.60;;;22.25;;
35606;SDS011;21729;58.392;15.656;2022-07-01T01:05:34;25.05;;;22.75;;
35606;SDS011;21729;58.392;15.656;2022-07-01T01:08:01;26.02;;;23.42;;
35606;SDS011;21729;58.392;15.656;2022-07-01T01:10:28;25.73;;;23.30;;
35606;SDS011;21729;58.392;15.656;2022-07-01T01:12:57;25.48;;;22.98;;
35606;SDS011;21729;58.392;15.656;2022-07-01T01:15:24;26.52;;;24.10;;
35606;SDS011;21729;58.392;15.656;2022-07-01T01:17:52;25.35;;;22.95;;
35606;SDS011;21729;58.392;15.656;2022-07-01T01:20:20;26.23;;;23.70;;
35606;SDS011;21729;58.392;15.656;2022-07-01T01:22:49;25.45;;;22.85;;
35606;SDS011;21729;58.392;15.656;2022-07-01T01:25:16;25.17;;;22.67;;
35606;SDS011;21729;58.392;15.656;2022-07-01T01:27:44;24.87;;;22.57;;
35606;SDS011;21729;58.392;15.656;2022-07-01T01:30:11;25.17;;;22.83;;
35606;SDS011;21729;58.392;15.656;2022-07-01T01:32:38;24.98;;;22.67;;
35606;SDS011;21729;58.392;15.656;2022-07-01T01:35:07;25.08;;;22.67;;
35606;SDS011;21729;58.392;15.656;2022-07-01T01:37:34;25.40;;;22.90;;
35606;SDS011;21729;58.392;15.656;2022-07-01T01:40:03;25.70;;;23.30;;
35606;SDS011;21729;58.392;15.656;2022-07-01T01:42:31;25.02;;;22.67;;
35606;SDS011;21729;58.392;15.656;2022-07-01T01:44:58;25.15;;;22.75;;
35606;SDS011;21729;58.392;15.656;2022-07-01T01:47:25;25.80;;;23.40;;
35606;SDS011;21729;58.392;15.656;2022-07-01T01:49:52;26.38;;;23.77;;
35606;SDS011;21729;58.392;15.656;2022-07-01T01:52:19;26.45;;;23.88;;
35606;SDS011;21729;58.392;15.656;2022-07-01T01:54:46;24.92;;;22.52;;
35606;SDS011;21729;58.392;15.656;2022-07-01T01:57:15;26.15;;;23.63;;
35606;SDS011;21729;58.392;15.656;2022-07-01T01:59:42;26.25;;;23.65;;
35606;SDS011;21729;58.392;15.656;2022-07-01T02:02:09;25.33;;;22.92;;
35606;SDS011;21729;58.392;15.656;2022-07-01T02:04:36;24.30;;;21.90;;
35606;SDS011;21729;58.392;15.656;2022-07-01T02:07:03;23.77;;;21.55;;
35606;SDS011;21729;58.392;15.656;2022-07-01T02:09:31;23.85;;;21.55;;
35606;SDS011;21729;58.392;15.656;2022-07-01T02:11:58;23.33;;;21.05;;
35606;SDS011;21729;58.392;15.656;2022-07-01T02:14:27;23.80;;;21.60;;
35606;SDS011;21729;58.392;15.656;2022-07-01T02:16:54;22.85;;;20.65;;
35606;SDS011;21729;58.392;15.656;2022-07-01T02:19:21;23.67;;;21.38;;
35606;SDS011;21729;58.392;15.656;2022-07-01T02:21:48;23.35;;;21.15;;
35606;SDS011;21729;58.392;15.656;2022-07-01T02:24:16;22.77;;;20.55;;
35606;SDS011;21729;58.392;15.656;2022-07-01T02:26:43;23.63;;;21.33;;
35606;SDS011;21729;58.392;15.656;2022-07-01T02:29:10;22.67;;;20.48;;
35606;SDS011;21729;58.392;15.656;2022-07-01T02:31:39;22.35;;;20.25;;
35606;SDS011;21729;58.392;15.656;2022-07-01T02:34:06;22.60;;;20.47;;
35606;SDS011;21729;58.392;15.656;2022-07-01T02:36:33;21.30;;;19.25;;
35606;SDS011;21729;58.392;15.656;2022-07-01T02:39:00;20.42;;;18.48;;
35606;SDS011;21729;58.392;15.656;2022-07-01T02:41:27;20.98;;;18.98;;
35606;SDS011;21729;58.392;15.656;2022-07-01T02:43:54;21.13;;;19.13;;
35606;SDS011;21729;58.392;15.656;2022-07-01T02:46:21;18.27;;;16.58;;
35606;SDS011;21729;58.392;15.656;2022-07-01T02:48:50;18.77;;;16.98;;
35606;SDS011;21729;58.392;15.656;2022-07-01T02:51:17;18.50;;;16.80;;
35606;SDS011;21729;58.392;15.656;2022-07-01T02:53:44;18.83;;;17.02;;
35606;SDS011;21729;58.392;15.656;2022-07-01T02:56:11;18.65;;;16.85;;
35606;SDS011;21729;58.392;15.656;2022-07-01T02:58:39;18.52;;;16.83;;
35606;SDS011;21729;58.392;15.656;2022-07-01T03:01:06;18.90;;;17.10;;
35606;SDS011;21729;58.392;15.656;2022-07-01T03:03:33;18.35;;;16.65;;
35606;SDS011;21729;58.392;15.656;2022-07-01T03:06:02;18.38;;;16.77;;
35606;SDS011;21729;58.392;15.656;2022-07-01T03:08:29;17.58;;;15.88;;
35606;SDS011;21729;58.392;15.656;2022-07-01T03:10:56;18.35;;;16.55;;
35606;SDS011;21729;58.392;15.656;2022-07-01T03:13:23;17.30;;;15.70;;
35606;SDS011;21729;58.392;15.656;2022-07-01T03:15:50;17.38;;;15.88;;
35606;SDS011;21729;58.392;15.656;2022-07-01T03:18:17;17.53;;;15.93;;
35606;SDS011;21729;58.392;15.656;2022-07-01T03:20:44;18.10;;;16.45;;
35606;SDS011;21729;58.392;15.656;2022-07-01T03:23:13;17.08;;;15.57;;
35606;SDS011;21729;58.392;15.656;2022-07-01T03:25:40;17.73;;;16.13;;
35606;SDS011;21729;58.392;15.656;2022-07-01T03:28:07;17.10;;;15.57;;
35606;SDS011;21729;58.392;15.656;2022-07-01T03:30:34;17.05;;;15.45;;
35606;SDS011;21729;58.392;15.656;2022-07-01T03:33:01;17.70;;;16.07;;
35606;SDS011;21729;58.392;15.656;2022-07-01T03:35:29;17.33;;;15.83;;
35606;SDS011;21729;58.392;15.656;2022-07-01T03:38:02;17.30;;;15.70;;
35606;SDS011;21729;58.392;15.656;2022-07-01T03:40:31;17.45;;;15.85;;
35606;SDS011;21729;58.392;15.656;2022-07-01T03:42:58;16.65;;;15.15;;
35606;SDS011;21729;58.392;15.656;2022-07-01T03:45:25;17.15;;;15.50;;
35606;SDS011;21729;58.392;15.656;2022-07-01T03:47:52;17.30;;;15.70;;
35606;SDS011;21729;58.392;15.656;2022-07-01T03:50:20;16.48;;;15.00;;
35606;SDS011;21729;58.392;15.656;2022-07-01T03:52:48;16.88;;;15.30;;
35606;SDS011;21729;58.392;15.656;2022-07-01T03:55:36;16.88;;;15.38;;
35606;SDS011;21729;58.392;15.656;2022-07-01T03:58:03;16.92;;;15.45;;
35606;SDS011;21729;58.392;15.656;2022-07-01T04:00:30;15.80;;;14.38;;
35606;SDS011;21729;58.392;15.656;2022-07-01T04:03:00;15.55;;;14.25;;
35606;SDS011;21729;58.392;15.656;2022-07-01T04:05:27;16.00;;;14.60;;
35606;SDS011;21729;58.392;15.656;2022-07-01T04:07:54;15.63;;;14.23;;
35606;SDS011;21729;58.392;15.656;2022-07-01T04:10:21;15.20;;;13.80;;
35606;SDS011;21729;58.392;15.656;2022-07-01T04:12:50;16.35;;;14.90;;
35606;SDS011;21729;58.392;15.656;2022-07-01T04:15:17;15.07;;;13.77;;
35606;SDS011;21729;58.392;15.656;2022-07-01T04:17:44;15.20;;;13.90;;
35606;SDS011;21729;58.392;15.656;2022-07-01T04:20:11;14.40;;;13.20;;
35606;SDS011;21729;58.392;15.656;2022-07-01T04:22:38;14.90;;;13.57;;
35606;SDS011;21729;58.392;15.656;2022-07-01T04:25:05;14.80;;;13.50;;
35606;SDS011;21729;58.392;15.656;2022-07-01T04:27:33;14.95;;;13.65;;
35606;SDS011;21729;58.392;15.656;2022-07-01T04:30:01;15.00;;;13.70;;
35606;SDS011;21729;58.392;15.656;2022-07-01T04:32:29;13.82;;;12.63;;
35606;SDS011;21729;58.392;15.656;2022-07-01T04:34:56;14.35;;;13.05;;
35606;SDS011;21729;58.392;15.656;2022-07-01T04:37:23;13.63;;;12.43;;
35606;SDS011;21729;58.392;15.656;2022-07-01T04:39:50;13.02;;;11.93;;
35606;SDS011;21729;58.392;15.656;2022-07-01T04:42:17;13.43;;;12.30;;
35606;SDS011;21729;58.392;15.656;2022-07-01T04:44:45;13.50;;;12.30;;
35606;SDS011;21729;58.392;15.656;2022-07-01T04:47:14;13.55;;;12.45;;
35606;SDS011;21729;58.392;15.656;2022-07-01T04:49:41;13.65;;;12.45;;
35606;SDS011;21729;58.392;15.656;2022-07-01T04:52:08;13.63;;;12.43;;
35606;SDS011;21729;58.392;15.656;2022-07-01T04:54:35;13.00;;;11.90;;
35606;SDS011;21729;58.392;15.656;2022-07-01T04:57:02;13.20;;;12.00;;
35606;SDS011;21729;58.392;15.656;2022-07-01T04:59:29;13.05;;;11.88;;
35606;SDS011;21729;58.392;15.656;2022-07-01T05:01:57;12.30;;;11.23;;
35606;SDS011;21729;58.392;15.656;2022-07-01T05:04:25;11.93;;;10.90;;
35606;SDS011;21729;58.392;15.656;2022-07-01T05:06:53;12.27;;;11.27;;
35606;SDS011;21729;58.392;15.656;2022-07-01T05:09:20;12.43;;;11.30;;
35606;SDS011;21729;58.392;15.656;2022-07-01T05:11:47;11.30;;;10.40;;
35606;SDS011;21729;58.392;15.656;2022-07-01T05:14:14;11.40;;;10.43;;
35606;SDS011;21729;58.392;15.656;2022-07-01T05:16:41;11.52;;;10.52;;
35606;SDS011;21729;58.392;15.656;2022-07-01T05:19:08;11.88;;;10.77;;
35606;SDS011;21729;58.392;15.656;2022-07-01T05:21:54;11.35;;;10.35;;
35606;SDS011;21729;58.392;15.656;2022-07-01T05:24:28;10.68;;;9.77;;
35606;SDS011;21729;58.392;15.656;2022-07-01T05:26:56;10.23;;;9.40;;
35606;SDS011;21729;58.392;15.656;2022-07-01T05:29:24;10.63;;;9.73;;
35606;SDS011;21729;58.392;15.656;2022-07-01T05:31:51;10.20;;;9.40;;
35606;SDS011;21729;58.392;15.656;2022-07-01T05:34:18;10.40;;;9.50;;
35606;SDS011;21729;58.392;15.656;2022-07-01T05:36:45;10.23;;;9.32;;
35606;SDS011;21729;58.392;15.656;2022-07-01T05:39:14;10.45;;;9.55;;
35606;SDS011;21729;58.392;15.656;2022-07-01T05:41:41;9.60;;;8.90;;
35606;SDS011;21729;58.392;15.656;2022-07-01T05:44:08;9.80;;;8.93;;
35606;SDS011;21729;58.392;15.656;2022-07-01T05:46:35;9.40;;;8.60;;
35606;SDS011;21729;58.392;15.656;2022-07-01T05:49:02;9.57;;;8.77;;
35606;SDS011;21729;58.392;15.656;2022-07-01T05:51:30;9.02;;;8.23;;
35606;SDS011;21729;58.392;15.656;2022-07-01T05:53:58;8.60;;;8.00;;
35606;SDS011;21729;58.392;15.656;2022-07-01T05:56:27;8.77;;;8.07;;
35606;SDS011;21729;58.392;15.656;2022-07-01T05:58:54;9.02;;;8.32;;
35606;SDS011;21729;58.392;15.656;2022-07-01T06:01:21;8.65;;;7.95;;
35606;SDS011;21729;58.392;15.656;2022-07-01T06:03:48;7.95;;;7.35;;
35606;SDS011;21729;58.392;15.656;2022-07-01T06:06:15;7.30;;;6.70;;
35606;SDS011;21729;58.392;15.656;2022-07-01T06:08:44;7.00;;;6.40;;
35606;SDS011;21729;58.392;15.656;2022-07-01T06:11:12;6.50;;;6.00;;
35606;SDS011;21729;58.392;15.656;2022-07-01T06:13:41;6.50;;;5.97;;
35606;SDS011;21729;58.392;15.656;2022-07-01T06:16:08;6.40;;;5.90;;
35606;SDS011;21729;58.392;15.656;2022-07-01T06:18:35;6.40;;;5.90;;
35606;SDS011;21729;58.392;15.656;2022-07-01T06:21:02;6.38;;;5.88;;
35606;SDS011;21729;58.392;15.656;2022-07-01T06:23:29;6.20;;;5.63;;
35606;SDS011;21729;58.392;15.656;2022-07-01T06:25:56;6.40;;;5.90;;
35606;SDS011;21729;58.392;15.656;2022-07-01T06:28:24;6.03;;;5.50;;
35606;SDS011;21729;58.392;15.656;2022-07-01T06:30:56;5.28;;;4.90;;
35606;SDS011;21729;58.392;15.656;2022-07-01T06:33:23;5.07;;;4.60;;
35606;SDS011;21729;58.392;15.656;2022-07-01T06:35:52;5.30;;;4.90;;
35606;SDS011;21729;58.392;15.656;2022-07-01T06:38:19;5.80;;;5.30;;
35606;SDS011;21729;58.392;15.656;2022-07-01T06:40:46;5.40;;;4.90;;
35606;SDS011;21729;58.392;15.656;2022-07-01T06:43:33;5.03;;;4.63;;
35606;SDS011;21729;58.392;15.656;2022-07-01T06:46:02;5.20;;;4.80;;
35606;SDS011;21729;58.392;15.656;2022-07-01T06:48:30;5.40;;;5.00;;
35606;SDS011;21729;58.392;15.656;2022-07-01T06:50:57;4.95;;;4.50;;
35606;SDS011;21729;58.392;15.656;2022-07-01T06:53:24;4.85;;;4.47;;
35606;SDS011;21729;58.392;15.656;2022-07-01T06:55:51;5.23;;;4.73;;
35606;SDS011;21729;58.392;15.656;2022-07-01T06:58:18;4.78;;;4.38;;
35606;SDS011;21729;58.392;15.656;2022-07-01T07:00:46;5.47;;;5.07;;
35606;SDS011;21729;58.392;15.656;2022-07-01T07:03:14;5.55;;;5.15;;
35606;SDS011;21729;58.392;15.656;2022-07-01T07:05:41;4.93;;;4.63;;
35606;SDS011;21729;58.392;15.656;2022-07-01T07:08:08;5.18;;;4.70;;
35606;SDS011;21729;58.392;15.656;2022-07-01T07:10:35;5.45;;;5.05;;
35606;SDS011;21729;58.392;15.656;2022-07-01T07:13:02;5.30;;;4.90;;
35606;SDS011;21729;58.392;15.656;2022-07-01T07:15:29;5.57;;;5.18;;
35606;SDS011;21729;58.392;15.656;2022-07-01T07:17:57;5.80;;;5.30;;
35606;SDS011;21729;58.392;15.656;2022-07-01T07:20:25;5.45;;;5.05;;
35606;SDS011;21729;58.392;15.656;2022-07-01T07:22:53;5.60;;;5.20;;
35606;SDS011;21729;58.392;15.656;2022-07-01T07:25:20;5.72;;;5.32;;
35606;SDS011;21729;58.392;15.656;2022-07-01T07:27:47;5.03;;;4.73;;
35606;SDS011;21729;58.392;15.656;2022-07-01T07:30:14;5.32;;;4.93;;
35606;SDS011;21729;58.392;15.656;2022-07-01T07:32:42;5.57;;;5.07;;
35606;SDS011;21729;58.392;15.656;2022-07-01T07:35:09;4.95;;;4.55;;
35606;SDS011;21729;58.392;15.656;2022-07-01T07:37:38;5.40;;;4.90;;
35606;SDS011;21729;58.392;15.656;2022-07-01T07:40:05;4.57;;;4.22;;
35606;SDS011;21729;58.392;15.656;2022-07-01T07:42:35;5.18;;;4.85;;
35606;SDS011;21729;58.392;15.656;2022-07-01T07:45:02;5.00;;;4.70;;
35606;SDS011;21729;58.392;15.656;2022-07-01T07:47:31;4.82;;;4.43;;
35606;SDS011;21729;58.392;15.656;2022-07-01T07:49:58;4.87;;;4.47;;
35606;SDS011;21729;58.392;15.656;2022-07-01T07:52:25;4.40;;;4.10;;
35606;SDS011;21729;58.392;15.656;2022-07-01T07:54:54;4.50;;;4.20;;
35606;SDS011;21729;58.392;15.656;2022-07-01T07:57:21;4.32;;;4.00;;
35606;SDS011;21729;58.392;15.656;2022-07-01T07:59:48;4.45;;;4.10;;
35606;SDS011;21729;58.392;15.656;2022-07-01T08:02:15;4.20;;;3.90;;
35606;SDS011;21729;58.392;15.656;2022-07-01T08:04:42;4.07;;;3.78;;
35606;SDS011;21729;58.392;15.656;2022-07-01T08:07:09;4.45;;;4.15;;
35606;SDS011;21729;58.392;15.656;2022-07-01T08:09:37;3.87;;;3.57;;
35606;SDS011;21729;58.392;15.656;2022-07-01T08:12:05;3.70;;;3.50;;
35606;SDS011;21729;58.392;15.656;2022-07-01T08:14:33;3.63;;;3.33;;
35606;SDS011;21729;58.392;15.656;2022-07-01T08:17:00;4.05;;;3.75;;
35606;SDS011;21729;58.392;15.656;2022-07-01T08:19:27;4.18;;;3.88;;
35606;SDS011;21729;58.392;15.656;2022-07-01T08:21:54;4.50;;;4.20;;
35606;SDS011;21729;58.392;15.656;2022-07-01T08:24:21;4.75;;;4.35;;
35606;SDS011;21729;58.392;15.656;2022-07-01T08:26:48;5.10;;;4.70;;
35606;SDS011;21729;58.392;15.656;2022-07-01T08:29:16;5.00;;;4.60;;
35606;SDS011;21729;58.392;15.656;2022-07-01T08:31:45;4.50;;;4.10;;
35606;SDS011;21729;58.392;15.656;2022-07-01T08:34:12;4.35;;;4.05;;
35606;SDS011;21729;58.392;15.656;2022-07-01T08:36:40;5.07;;;4.00;;
35606;SDS011;21729;58.392;15.656;2022-07-01T08:39:07;4.53;;;4.15;;
35606;SDS011;21729;58.392;15.656;2022-07-01T08:41:35;4.32;;;4.00;;
35606;SDS011;21729;58.392;15.656;2022-07-01T08:44:02;4.28;;;3.97;;
35606;SDS011;21729;58.392;15.656;2022-07-01T08:46:31;4.13;;;3.83;;
35606;SDS011;21729;58.392;15.656;2022-07-01T08:49:00;4.47;;;4.07;;
35606;SDS011;21729;58.392;15.656;2022-07-01T08:51:27;4.20;;;3.90;;
35606;SDS011;21729;58.392;15.656;2022-07-01T08:53:54;4.10;;;3.80;;
35606;SDS011;21729;58.392;15.656;2022-07-01T08:56:21;4.10;;;3.80;;
35606;SDS011;21729;58.392;15.656;2022-07-01T08:59:06;4.20;;;3.90;;
35606;SDS011;21729;58.392;15.656;2022-07-01T09:01:34;3.25;;;3.05;;
35606;SDS011;21729;58.392;15.656;2022-07-01T09:04:12;3.47;;;3.17;;
35606;SDS011;21729;58.392;15.656;2022-07-01T09:06:41;3.78;;;3.50;;
35606;SDS011;21729;58.392;15.656;2022-07-01T09:09:11;3.80;;;3.50;;
35606;SDS011;21729;58.392;15.656;2022-07-01T09:11:43;3.97;;;3.67;;
35606;SDS011;21729;58.392;15.656;2022-07-01T09:14:12;3.25;;;3.00;;
35606;SDS011;21729;58.392;15.656;2022-07-01T09:16:42;3.33;;;3.13;;
35606;SDS011;21729;58.392;15.656;2022-07-01T09:19:11;3.33;;;3.13;;
35606;SDS011;21729;58.392;15.656;2022-07-01T09:21:39;3.60;;;3.30;;
35606;SDS011;21729;58.392;15.656;2022-07-01T09:24:21;3.40;;;3.13;;
35606;SDS011;21729;58.392;15.656;2022-07-01T09:26:54;3.60;;;3.33;;
35606;SDS011;21729;58.392;15.656;2022-07-01T09:29:26;3.90;;;3.60;;
35606;SDS011;21729;58.392;15.656;2022-07-01T09:31:55;3.45;;;3.25;;
35606;SDS011;21729;58.392;15.656;2022-07-01T09:34:22;3.00;;;2.70;;
35606;SDS011;21729;58.392;15.656;2022-07-01T09:36:53;3.38;;;3.17;;
35606;SDS011;21729;58.392;15.656;2022-07-01T09:39:23;3.13;;;2.80;;
35606;SDS011;21729;58.392;15.656;2022-07-01T09:41:53;3.20;;;3.00;;
35606;SDS011;21729;58.392;15.656;2022-07-01T09:44:21;3.40;;;3.10;;
35606;SDS011;21729;58.392;15.656;2022-07-01T09:46:52;3.60;;;3.40;;
35606;SDS011;21729;58.392;15.656;2022-07-01T09:49:22;3.60;;;3.40;;
35606;SDS011;21729;58.392;15.656;2022-07-01T09:51:49;3.50;;;3.30;;
35606;SDS011;21729;58.392;15.656;2022-07-01T09:54:18;3.30;;;3.10;;
35606;SDS011;21729;58.392;15.656;2022-07-01T09:56:45;3.08;;;2.88;;
35606;SDS011;21729;58.392;15.656;2022-07-01T09:59:13;3.22;;;2.97;;
35606;SDS011;21729;58.392;15.656;2022-07-01T10:01:40;3.03;;;2.72;;
35606;SDS011;21729;58.392;15.656;2022-07-01T10:04:12;3.00;;;2.80;;
35606;SDS011;21729;58.392;15.656;2022-07-01T10:09:46;3.07;;;2.87;;
35606;SDS011;21729;58.392;15.656;2022-07-01T10:12:28;2.60;;;2.40;;
35606;SDS011;21729;58.392;15.656;2022-07-01T10:15:03;3.83;;;2.60;;
35606;SDS011;21729;58.392;15.656;2022-07-01T10:17:34;2.67;;;2.47;;
35606;SDS011;21729;58.392;15.656;2022-07-01T10:20:09;2.60;;;2.40;;
35606;SDS011;21729;58.392;15.656;2022-07-01T10:22:38;2.80;;;2.60;;
35606;SDS011;21729;58.392;15.656;2022-07-01T10:28:11;3.00;;;2.67;;
35606;SDS011;21729;58.392;15.656;2022-07-01T10:30:48;2.80;;;2.60;;
35606;SDS011;21729;58.392;15.656;2022-07-01T10:33:26;2.90;;;2.70;;
35606;SDS011;21729;58.392;15.656;2022-07-01T10:36:13;2.97;;;2.77;;
35606;SDS011;21729;58.392;15.656;2022-07-01T10:41:55;2.80;;;2.60;;
35606;SDS011;21729;58.392;15.656;2022-07-01T10:44:24;3.33;;;3.00;;
35606;SDS011;21729;58.392;15.656;2022-07-01T10:46:52;3.10;;;2.63;;
35606;SDS011;21729;58.392;15.656;2022-07-01T10:52:25;2.80;;;2.60;;
35606;SDS011;21729;58.392;15.656;2022-07-01T10:54:53;3.10;;;2.80;;
35606;SDS011;21729;58.392;15.656;2022-07-01T10:57:25;2.95;;;2.75;;
35606;SDS011;21729;58.392;15.656;2022-07-01T10:59:56;3.15;;;2.85;;
35606;SDS011;21729;58.392;15.656;2022-07-01T11:02:54;3.38;;;3.17;;
35606;SDS011;21729;58.392;15.656;2022-07-01T11:05:21;3.05;;;2.75;;
35606;SDS011;21729;58.392;15.656;2022-07-01T11:07:50;3.08;;;2.88;;
35606;SDS011;21729;58.392;15.656;2022-07-01T11:10:21;3.38;;;3.08;;
35606;SDS011;21729;58.392;15.656;2022-07-01T11:12:49;3.17;;;2.45;;
35606;SDS011;21729;58.392;15.656;2022-07-01T11:15:17;2.70;;;2.40;;
35606;SDS011;21729;58.392;15.656;2022-07-01T11:17:46;2.65;;;2.45;;
35606;SDS011;21729;58.392;15.656;2022-07-01T11:20:15;2.67;;;2.47;;
35606;SDS011;21729;58.392;15.656;2022-07-01T11:22:42;3.20;;;2.90;;
35606;SDS011;21729;58.392;15.656;2022-07-01T11:25:12;3.40;;;3.13;;
35606;SDS011;21729;58.392;15.656;2022-07-01T11:27:40;2.70;;;2.50;;
35606;SDS011;21729;58.392;15.656;2022-07-01T11:30:11;2.83;;;2.63;;
35606;SDS011;21729;58.392;15.656;2022-07-01T11:32:41;2.90;;;2.60;;
35606;SDS011;21729;58.392;15.656;2022-07-01T11:35:13;2.97;;;2.78;;
35606;SDS011;21729;58.392;15.656;2022-07-01T11:38:05;3.05;;;2.75;;
35606;SDS011;21729;58.392;15.656;2022-07-01T11:40:51;2.90;;;2.70;;
35606;SDS011;21729;58.392;15.656;2022-07-01T11:43:19;2.80;;;2.60;;
35606;SDS011;21729;58.392;15.656;2022-07-01T11:45:48;2.72;;;2.53;;
35606;SDS011;21729;58.392;15.656;2022-07-01T11:50:58;2.70;;;2.50;;
35606;SDS011;21729;58.392;15.656;2022-07-01T11:53:26;3.03;;;2.47;;
35606;SDS011;21729;58.392;15.656;2022-07-01T11:55:55;4.03;;;2.42;;
35606;SDS011;21729;58.392;15.656;2022-07-01T11:58:22;2.40;;;2.20;;
35606;SDS011;21729;58.392;15.656;2022-07-01T12:00:49;3.00;;;2.80;;
35606;SDS011;21729;58.392;15.656;2022-07-01T12:03:29;3.00;;;2.65;;
35606;SDS011;21729;58.392;15.656;2022-07-01T12:05:57;3.35;;;2.40;;
35606;SDS011;21729;58.392;15.656;2022-07-01T12:08:24;2.33;;;2.13;;
35606;SDS011;21729;58.392;15.656;2022-07-01T12:10:52;2.40;;;2.20;;
35606;SDS011;21729;58.392;15.656;2022-07-01T12:13:21;3.22;;;2.47;;
35606;SDS011;21729;58.392;15.656;2022-07-01T12:15:49;2.70;;;2.42;;
35606;SDS011;21729;58.392;15.656;2022-07-01T12:18:16;2.30;;;2.10;;
35606;SDS011;21729;58.392;15.656;2022-07-01T12:20:52;2.45;;;2.25;;
35606;SDS011;21729;58.392;15.656;2022-07-01T12:23:20;3.42;;;2.40;;
35606;SDS011;21729;58.392;15.656;2022-07-01T12:25:48;2.53;;;2.30;;
35606;SDS011;21729;58.392;15.656;2022-07-01T12:28:27;2.65;;;2.45;;
35606;SDS011;21729;58.392;15.656;2022-07-01T12:30:59;2.35;;;2.25;;
35606;SDS011;21729;58.392;15.656;2022-07-01T12:33:27;2.17;;;2.08;;
35606;SDS011;21729;58.392;15.656;2022-07-01T12:35:54;2.50;;;2.15;;
35606;SDS011;21729;58.392;15.656;2022-07-01T12:38:21;2.45;;;2.25;;
35606;SDS011;21729;58.392;15.656;2022-07-01T12:40:49;2.28;;;2.08;;
35606;SDS011;21729;58.392;15.656;2022-07-01T12:43:22;2.30;;;2.10;;
35606;SDS011;21729;58.392;15.656;2022-07-01T12:45:58;2.90;;;2.30;;
35606;SDS011;21729;58.392;15.656;2022-07-01T12:48:27;2.80;;;2.33;;
35606;SDS011;21729;58.392;15.656;2022-07-01T12:50:55;2.70;;;2.20;;
35606;SDS011;21729;58.392;15.656;2022-07-01T12:53:23;2.63;;;2.42;;
35606;SDS011;21729;58.392;15.656;2022-07-01T12:55:52;2.67;;;2.40;;
35606;SDS011;21729;58.392;15.656;2022-07-01T12:58:21;2.30;;;2.10;;
35606;SDS011;21729;58.392;15.656;2022-07-01T13:00:51;2.53;;;2.10;;
35606;SDS011;21729;58.392;15.656;2022-07-01T13:03:20;2.20;;;2.10;;
35606;SDS011;21729;58.392;15.656;2022-07-01T13:05:49;2.65;;;2.45;;
35606;SDS011;21729;58.392;15.656;2022-07-01T13:08:17;2.47;;;2.28;;
35606;SDS011;21729;58.392;15.656;2022-07-01T13:10:45;2.55;;;2.35;;
35606;SDS011;21729;58.392;15.656;2022-07-01T13:13:13;2.33;;;2.13;;
35606;SDS011;21729;58.392;15.656;2022-07-01T13:15:42;2.60;;;2.40;;
35606;SDS011;21729;58.392;15.656;2022-07-01T13:18:11;2.58;;;2.30;;
35606;SDS011;21729;58.392;15.656;2022-07-01T13:20:39;2.90;;;2.60;;
35606;SDS011;21729;58.392;15.656;2022-07-01T13:23:06;2.55;;;2.35;;
35606;SDS011;21729;58.392;15.656;2022-07-01T13:25:33;2.40;;;2.20;;
35606;SDS011;21729;58.392;15.656;2022-07-01T13:28:01;2.20;;;2.10;;
35606;SDS011;21729;58.392;15.656;2022-07-01T13:30:29;2.58;;;2.38;;
35606;SDS011;21729;58.392;15.656;2022-07-01T13:32:56;2.67;;;2.47;;
35606;SDS011;21729;58.392;15.656;2022-07-01T13:35:24;2.50;;;2.30;;
35606;SDS011;21729;58.392;15.656;2022-07-01T13:37:52;2.47;;;2.28;;
35606;SDS011;21729;58.392;15.656;2022-07-01T13:40:19;3.13;;;2.30;;
35606;SDS011;21729;58.392;15.656;2022-07-01T13:42:46;2.42;;;2.22;;
35606;SDS011;21729;58.392;15.656;2022-07-01T13:45:14;2.47;;;2.28;;
35606;SDS011;21729;58.392;15.656;2022-07-01T13:47:41;2.50;;;2.30;;
35606;SDS011;21729;58.392;15.656;2022-07-01T13:50:09;2.60;;;2.20;;
35606;SDS011;21729;58.392;15.656;2022-07-01T13:52:39;2.60;;;2.40;;
35606;SDS011;21729;58.392;15.656;2022-07-01T13:55:06;2.97;;;2.47;;
35606;SDS011;21729;58.392;15.656;2022-07-01T13:57:33;2.70;;;2.30;;
35606;SDS011;21729;58.392;15.656;2022-07-01T14:00:01;2.50;;;2.30;;
35606;SDS011;21729;58.392;15.656;2022-07-01T14:02:28;2.60;;;2.40;;
35606;SDS011;21729;58.392;15.656;2022-07-01T14:04:57;2.63;;;2.42;;
35606;SDS011;21729;58.392;15.656;2022-07-01T14:07:24;2.45;;;2.17;;
35606;SDS011;21729;58.392;15.656;2022-07-01T14:09:52;2.70;;;2.50;;
35606;SDS011;21729;58.392;15.656;2022-07-01T14:12:19;2.60;;;2.40;;
35606;SDS011;21729;58.392;15.656;2022-07-01T14:14:46;2.85;;;2.40;;
35606;SDS011;21729;58.392;15.656;2022-07-01T14:17:13;2.53;;;2.28;;
35606;SDS011;21729;58.392;15.656;2022-07-01T14:19:40;2.25;;;2.05;;
35606;SDS011;21729;58.392;15.656;2022-07-01T14:22:07;2.22;;;2.10;;
35606;SDS011;21729;58.392;15.656;2022-07-01T14:24:35;3.13;;;2.20;;
35606;SDS011;21729;58.392;15.656;2022-07-01T14:27:04;2.38;;;2.10;;
35606;SDS011;21729;58.392;15.656;2022-07-01T14:29:31;2.90;;;2.42;;
35606;SDS011;21729;58.392;15.656;2022-07-01T14:31:58;2.40;;;2.20;;
35606;SDS011;21729;58.392;15.656;2022-07-01T14:34:25;2.40;;;2.20;;
35606;SDS011;21729;58.392;15.656;2022-07-01T14:36:53;2.40;;;2.20;;
35606;SDS011;21729;58.392;15.656;2022-07-01T14:39:20;2.67;;;2.47;;
35606;SDS011;21729;58.392;15.656;2022-07-01T14:41:47;2.35;;;2.13;;
35606;SDS011;21729;58.392;15.656;2022-07-01T14:44:17;2.50;;;2.30;;
35606;SDS011;21729;58.392;15.656;2022-07-01T14:46:44;3.13;;;2.50;;